Aviation meteorology

METAR


Last update: 24 Feb 2021 19:50:00
658
SAHU41 HASM 242000
METAR LHSM 241945Z AUTO 00000KT 7000 NCD 08/04 Q1035

TAF


Last update: 24 Feb 2021 17:05:00
652
FCHU99 LHSM 241700
TAF LHSM 241700Z NIL